KOLS/OLS METAR and TAF weather

Enter ICAO airport designator
Station Type Date Time Source
KOLS METAR 2021/09/16 10:54 UTC NOAA

KOLS 161054Z AUTO 04004KT 10SM CLR 17/06 A2998 RMK AO2 SLP083 T01670061


Station Type Date Time Source
KOLS Decoded METAR 2021/09/16 10:54 UTC NOAA

NOGALES INTERNATIONAL AIRPORT , AZ, United States (KOLS) 31-25N 110-51W 1184M
Sep 16, 2021 - 06:54 AM EDT / 2021.09.16 1054 UTC
Wind: from the NE (040 degrees) at 5 MPH (4 KT):0
Visibility: 10 mile(s):0
Sky conditions: clear
Temperature: 62.1 F (16.7 C)
Dew Point: 43.0 F (6.1 C)
Relative Humidity: 49%
Pressure (altimeter): 29.98 in. Hg (1015 hPa)
ob: KOLS 161054Z AUTO 04004KT 10SM CLR 17/06 A2998 RMK AO2 SLP083 T01670061
cycle: 11

Station Type Date Time Source
KOLS TAF 2021/09/16 12:22 UTC NOAA

TAF KOLS 161120Z 1612/1712 VRB03KT P6SM SKC
FM161900 21009KT P6SM FEW100
FM162200 23007KT P6SM SCT100
FM170200 18006KT P6SM VCSH SCT100 BKN140

Example: see airport list